sensor_id;sensor_type;location;lat;lon;timestamp;P1;durP1;ratioP1;P2;durP2;ratioP2
3231;SDS011;1628;48.884;9.210;2022-09-03T04:01:56;2.03;;;1.97;;
3231;SDS011;1628;48.884;9.210;2022-09-03T04:04:22;2.03;;;1.93;;
3231;SDS011;1628;48.884;9.210;2022-09-03T04:06:49;2.53;;;2.33;;
3231;SDS011;1628;48.884;9.210;2022-09-03T04:09:15;2.00;;;1.90;;
3231;SDS011;1628;48.884;9.210;2022-09-03T04:11:42;2.10;;;2.00;;
3231;SDS011;1628;48.884;9.210;2022-09-03T04:14:09;2.20;;;2.10;;
3231;SDS011;1628;48.884;9.210;2022-09-03T04:16:35;5.00;;;1.63;;
3231;SDS011;1628;48.884;9.210;2022-09-03T04:19:03;4.00;;;1.80;;
3231;SDS011;1628;48.884;9.210;2022-09-03T04:21:30;2.10;;;2.00;;
3231;SDS011;1628;48.884;9.210;2022-09-03T04:23:57;2.00;;;1.80;;
3231;SDS011;1628;48.884;9.210;2022-09-03T04:26:24;4.83;;;2.20;;
3231;SDS011;1628;48.884;9.210;2022-09-03T04:28:55;1.93;;;1.83;;
3231;SDS011;1628;48.884;9.210;2022-09-03T04:31:22;1.93;;;1.93;;
3231;SDS011;1628;48.884;9.210;2022-09-03T04:33:49;2.00;;;1.80;;
3231;SDS011;1628;48.884;9.210;2022-09-03T04:36:17;2.13;;;2.03;;
3231;SDS011;1628;48.884;9.210;2022-09-03T04:38:45;3.03;;;1.97;;
3231;SDS011;1628;48.884;9.210;2022-09-03T04:41:14;2.90;;;2.20;;
3231;SDS011;1628;48.884;9.210;2022-09-03T04:43:42;2.03;;;1.93;;
3231;SDS011;1628;48.884;9.210;2022-09-03T04:46:10;2.70;;;2.17;;
3231;SDS011;1628;48.884;9.210;2022-09-03T04:48:38;2.13;;;1.83;;
3231;SDS011;1628;48.884;9.210;2022-09-03T04:51:06;2.17;;;2.07;;
3231;SDS011;1628;48.884;9.210;2022-09-03T04:53:36;2.23;;;2.13;;
3231;SDS011;1628;48.884;9.210;2022-09-03T04:56:10;1.60;;;1.60;;
3231;SDS011;1628;48.884;9.210;2022-09-03T04:58:38;2.40;;;2.20;;
3231;SDS011;1628;48.884;9.210;2022-09-03T05:01:06;2.00;;;1.80;;
3231;SDS011;1628;48.884;9.210;2022-09-03T05:03:33;2.10;;;2.00;;
3231;SDS011;1628;48.884;9.210;2022-09-03T05:06:01;2.23;;;2.13;;
3231;SDS011;1628;48.884;9.210;2022-09-03T05:08:30;2.30;;;2.20;;
3231;SDS011;1628;48.884;9.210;2022-09-03T05:11:02;2.23;;;2.13;;
3231;SDS011;1628;48.884;9.210;2022-09-03T05:13:30;2.20;;;2.10;;
3231;SDS011;1628;48.884;9.210;2022-09-03T05:15:58;3.27;;;2.40;;
3231;SDS011;1628;48.884;9.210;2022-09-03T05:18:26;2.20;;;2.10;;
3231;SDS011;1628;48.884;9.210;2022-09-03T05:20:56;2.50;;;2.30;;
3231;SDS011;1628;48.884;9.210;2022-09-03T05:23:24;2.97;;;2.77;;
3231;SDS011;1628;48.884;9.210;2022-09-03T05:25:53;2.97;;;2.30;;
3231;SDS011;1628;48.884;9.210;2022-09-03T05:28:22;3.23;;;2.93;;
3231;SDS011;1628;48.884;9.210;2022-09-03T05:30:56;3.00;;;2.63;;
3231;SDS011;1628;48.884;9.210;2022-09-03T05:33:24;2.40;;;2.30;;
3231;SDS011;1628;48.884;9.210;2022-09-03T05:35:52;2.10;;;2.00;;
3231;SDS011;1628;48.884;9.210;2022-09-03T05:38:18;2.77;;;2.57;;
3231;SDS011;1628;48.884;9.210;2022-09-03T05:40:45;2.23;;;2.13;;
3231;SDS011;1628;48.884;9.210;2022-09-03T05:43:12;2.60;;;2.40;;
3231;SDS011;1628;48.884;9.210;2022-09-03T05:45:42;2.43;;;2.20;;
3231;SDS011;1628;48.884;9.210;2022-09-03T05:48:09;2.40;;;2.30;;
3231;SDS011;1628;48.884;9.210;2022-09-03T05:50:35;2.50;;;2.30;;
3231;SDS011;1628;48.884;9.210;2022-09-03T05:53:02;2.40;;;2.30;;
3231;SDS011;1628;48.884;9.210;2022-09-03T05:55:29;2.17;;;2.07;;
3231;SDS011;1628;48.884;9.210;2022-09-03T05:57:55;3.73;;;2.60;;
3231;SDS011;1628;48.884;9.210;2022-09-03T06:00:22;5.10;;;2.40;;
3231;SDS011;1628;48.884;9.210;2022-09-03T06:02:50;2.30;;;2.20;;
3231;SDS011;1628;48.884;9.210;2022-09-03T06:05:17;2.47;;;2.37;;
3231;SDS011;1628;48.884;9.210;2022-09-03T06:07:44;4.37;;;2.77;;
3231;SDS011;1628;48.884;9.210;2022-09-03T06:10:12;2.00;;;1.90;;
3231;SDS011;1628;48.884;9.210;2022-09-03T06:12:40;2.67;;;2.47;;
3231;SDS011;1628;48.884;9.210;2022-09-03T06:15:09;2.50;;;2.30;;
3231;SDS011;1628;48.884;9.210;2022-09-03T06:17:36;3.57;;;2.23;;
3231;SDS011;1628;48.884;9.210;2022-09-03T06:20:05;25.47;;;3.00;;
3231;SDS011;1628;48.884;9.210;2022-09-03T06:22:33;2.77;;;2.57;;
3231;SDS011;1628;48.884;9.210;2022-09-03T06:24:59;2.50;;;2.40;;
3231;SDS011;1628;48.884;9.210;2022-09-03T06:27:27;3.53;;;2.57;;
3231;SDS011;1628;48.884;9.210;2022-09-03T06:29:54;2.60;;;2.40;;
3231;SDS011;1628;48.884;9.210;2022-09-03T06:32:23;2.27;;;2.17;;
3231;SDS011;1628;48.884;9.210;2022-09-03T06:34:49;2.20;;;2.10;;
3231;SDS011;1628;48.884;9.210;2022-09-03T06:37:17;2.70;;;2.33;;
3231;SDS011;1628;48.884;9.210;2022-09-03T06:39:44;3.17;;;2.97;;
3231;SDS011;1628;48.884;9.210;2022-09-03T06:42:10;2.70;;;2.50;;
3231;SDS011;1628;48.884;9.210;2022-09-03T06:44:37;3.40;;;2.20;;
3231;SDS011;1628;48.884;9.210;2022-09-03T06:47:04;3.20;;;2.50;;
3231;SDS011;1628;48.884;9.210;2022-09-03T06:49:30;5.23;;;3.10;;
3231;SDS011;1628;48.884;9.210;2022-09-03T06:51:57;6.00;;;2.60;;
3231;SDS011;1628;48.884;9.210;2022-09-03T06:54:25;2.60;;;2.50;;
3231;SDS011;1628;48.884;9.210;2022-09-03T06:56:52;7.83;;;2.67;;
3231;SDS011;1628;48.884;9.210;2022-09-03T06:59:19;3.20;;;2.90;;
3231;SDS011;1628;48.884;9.210;2022-09-03T07:01:45;3.37;;;2.20;;
3231;SDS011;1628;48.884;9.210;2022-09-03T07:04:12;3.70;;;2.60;;
3231;SDS011;1628;48.884;9.210;2022-09-03T07:06:41;2.57;;;2.43;;
3231;SDS011;1628;48.884;9.210;2022-09-03T07:09:08;2.53;;;2.33;;
3231;SDS011;1628;48.884;9.210;2022-09-03T07:11:37;2.70;;;2.07;;
3231;SDS011;1628;48.884;9.210;2022-09-03T07:14:10;3.73;;;3.43;;
3231;SDS011;1628;48.884;9.210;2022-09-03T07:16:37;2.60;;;2.40;;
3231;SDS011;1628;48.884;9.210;2022-09-03T07:19:06;4.20;;;2.70;;
3231;SDS011;1628;48.884;9.210;2022-09-03T07:21:33;2.93;;;2.73;;
3231;SDS011;1628;48.884;9.210;2022-09-03T07:24:02;2.83;;;2.63;;
3231;SDS011;1628;48.884;9.210;2022-09-03T07:26:30;3.60;;;3.30;;
3231;SDS011;1628;48.884;9.210;2022-09-03T07:29:00;3.07;;;2.53;;
3231;SDS011;1628;48.884;9.210;2022-09-03T07:31:27;3.33;;;3.13;;
3231;SDS011;1628;48.884;9.210;2022-09-03T07:33:56;3.20;;;2.83;;
3231;SDS011;1628;48.884;9.210;2022-09-03T07:36:24;5.43;;;2.53;;
3231;SDS011;1628;48.884;9.210;2022-09-03T07:38:53;2.80;;;2.70;;
3231;SDS011;1628;48.884;9.210;2022-09-03T07:41:21;2.70;;;2.57;;
3231;SDS011;1628;48.884;9.210;2022-09-03T07:43:49;3.27;;;2.97;;
3231;SDS011;1628;48.884;9.210;2022-09-03T07:46:18;3.20;;;2.90;;
3231;SDS011;1628;48.884;9.210;2022-09-03T07:48:47;3.63;;;2.13;;
3231;SDS011;1628;48.884;9.210;2022-09-03T07:51:15;3.50;;;3.20;;
3231;SDS011;1628;48.884;9.210;2022-09-03T07:53:42;3.03;;;2.70;;
3231;SDS011;1628;48.884;9.210;2022-09-03T07:56:09;3.60;;;2.60;;
3231;SDS011;1628;48.884;9.210;2022-09-03T07:58:37;2.80;;;2.23;;
3231;SDS011;1628;48.884;9.210;2022-09-03T08:01:05;3.53;;;2.83;;
3231;SDS011;1628;48.884;9.210;2022-09-03T08:03:34;2.97;;;2.70;;
3231;SDS011;1628;48.884;9.210;2022-09-03T08:06:02;3.73;;;3.10;;
3231;SDS011;1628;48.884;9.210;2022-09-03T08:08:30;3.07;;;2.77;;
3231;SDS011;1628;48.884;9.210;2022-09-03T08:11:02;3.10;;;2.77;;
3231;SDS011;1628;48.884;9.210;2022-09-03T08:13:30;3.37;;;3.13;;
3231;SDS011;1628;48.884;9.210;2022-09-03T08:15:57;4.27;;;3.00;;
3231;SDS011;1628;48.884;9.210;2022-09-03T08:18:25;4.80;;;3.03;;
3231;SDS011;1628;48.884;9.210;2022-09-03T08:21:00;7.57;;;6.80;;
3231;SDS011;1628;48.884;9.210;2022-09-03T08:23:27;3.90;;;3.60;;
3231;SDS011;1628;48.884;9.210;2022-09-03T08:25:56;3.23;;;3.03;;
3231;SDS011;1628;48.884;9.210;2022-09-03T08:28:24;3.33;;;3.03;;
3231;SDS011;1628;48.884;9.210;2022-09-03T08:30:50;2.90;;;2.70;;
3231;SDS011;1628;48.884;9.210;2022-09-03T08:33:17;3.57;;;3.27;;
3231;SDS011;1628;48.884;9.210;2022-09-03T08:36:02;6.97;;;6.20;;
3231;SDS011;1628;48.884;9.210;2022-09-03T08:38:30;3.70;;;3.40;;
3231;SDS011;1628;48.884;9.210;2022-09-03T08:41:01;3.47;;;3.20;;
3231;SDS011;1628;48.884;9.210;2022-09-03T08:43:29;3.60;;;3.33;;
3231;SDS011;1628;48.884;9.210;2022-09-03T08:45:58;3.90;;;3.60;;
3231;SDS011;1628;48.884;9.210;2022-09-03T08:48:26;9.03;;;3.57;;
3231;SDS011;1628;48.884;9.210;2022-09-03T08:50:54;3.50;;;3.20;;
3231;SDS011;1628;48.884;9.210;2022-09-03T08:53:27;4.20;;;3.70;;
3231;SDS011;1628;48.884;9.210;2022-09-03T08:56:01;3.87;;;3.67;;
3231;SDS011;1628;48.884;9.210;2022-09-03T08:58:33;4.73;;;4.10;;
3231;SDS011;1628;48.884;9.210;2022-09-03T09:01:03;4.20;;;3.90;;
3231;SDS011;1628;48.884;9.210;2022-09-03T09:03:39;4.77;;;4.37;;
3231;SDS011;1628;48.884;9.210;2022-09-03T09:06:15;4.63;;;4.00;;
3231;SDS011;1628;48.884;9.210;2022-09-03T09:08:53;4.87;;;4.53;;
3231;SDS011;1628;48.884;9.210;2022-09-03T09:11:28;4.27;;;3.97;;
3231;SDS011;1628;48.884;9.210;2022-09-03T09:14:06;4.50;;;3.83;;
3231;SDS011;1628;48.884;9.210;2022-09-03T09:16:43;4.47;;;4.07;;
3231;SDS011;1628;48.884;9.210;2022-09-03T09:19:26;5.20;;;3.90;;
3231;SDS011;1628;48.884;9.210;2022-09-03T09:22:04;3.90;;;3.60;;
3231;SDS011;1628;48.884;9.210;2022-09-03T09:24:38;5.20;;;4.80;;
3231;SDS011;1628;48.884;9.210;2022-09-03T09:27:07;4.40;;;4.07;;
3231;SDS011;1628;48.884;9.210;2022-09-03T09:29:34;4.30;;;3.90;;
3231;SDS011;1628;48.884;9.210;2022-09-03T09:32:03;7.20;;;4.13;;
3231;SDS011;1628;48.884;9.210;2022-09-03T09:34:33;8.10;;;7.50;;
3231;SDS011;1628;48.884;9.210;2022-09-03T09:37:00;4.90;;;4.50;;
3231;SDS011;1628;48.884;9.210;2022-09-03T09:39:29;5.83;;;5.33;;
3231;SDS011;1628;48.884;9.210;2022-09-03T09:41:57;5.93;;;4.17;;
3231;SDS011;1628;48.884;9.210;2022-09-03T09:44:26;3.97;;;3.70;;
3231;SDS011;1628;48.884;9.210;2022-09-03T09:47:00;4.70;;;4.40;;
3231;SDS011;1628;48.884;9.210;2022-09-03T09:49:31;6.53;;;3.77;;
3231;SDS011;1628;48.884;9.210;2022-09-03T09:52:07;5.00;;;4.60;;
3231;SDS011;1628;48.884;9.210;2022-09-03T09:54:36;4.17;;;3.97;;
3231;SDS011;1628;48.884;9.210;2022-09-03T09:57:06;3.93;;;3.50;;
3231;SDS011;1628;48.884;9.210;2022-09-03T09:59:33;4.07;;;3.77;;
3231;SDS011;1628;48.884;9.210;2022-09-03T10:02:03;5.13;;;3.87;;
3231;SDS011;1628;48.884;9.210;2022-09-03T10:04:35;3.50;;;3.20;;
3231;SDS011;1628;48.884;9.210;2022-09-03T10:07:04;4.57;;;4.17;;
3231;SDS011;1628;48.884;9.210;2022-09-03T10:09:43;4.07;;;3.80;;
3231;SDS011;1628;48.884;9.210;2022-09-03T10:12:12;3.77;;;3.50;;
3231;SDS011;1628;48.884;9.210;2022-09-03T10:14:45;5.03;;;3.33;;
3231;SDS011;1628;48.884;9.210;2022-09-03T10:17:20;4.10;;;3.00;;
3231;SDS011;1628;48.884;9.210;2022-09-03T10:19:55;3.57;;;3.37;;
3231;SDS011;1628;48.884;9.210;2022-09-03T10:22:51;6.33;;;5.90;;
3231;SDS011;1628;48.884;9.210;2022-09-03T10:25:20;6.67;;;5.00;;
3231;SDS011;1628;48.884;9.210;2022-09-03T10:27:50;4.40;;;4.00;;
3231;SDS011;1628;48.884;9.210;2022-09-03T10:30:18;4.33;;;4.10;;
3231;SDS011;1628;48.884;9.210;2022-09-03T10:33:00;3.07;;;2.87;;
3231;SDS011;1628;48.884;9.210;2022-09-03T10:35:35;3.77;;;3.50;;
3231;SDS011;1628;48.884;9.210;2022-09-03T10:38:08;4.80;;;4.40;;
3231;SDS011;1628;48.884;9.210;2022-09-03T10:40:43;3.47;;;3.17;;
3231;SDS011;1628;48.884;9.210;2022-09-03T10:43:24;4.67;;;3.50;;
3231;SDS011;1628;48.884;9.210;2022-09-03T10:46:07;6.13;;;3.90;;
3231;SDS011;1628;48.884;9.210;2022-09-03T10:48:52;4.23;;;3.90;;
3231;SDS011;1628;48.884;9.210;2022-09-03T10:51:39;2.90;;;2.80;;
3231;SDS011;1628;48.884;9.210;2022-09-03T10:54:17;3.50;;;3.20;;
3231;SDS011;1628;48.884;9.210;2022-09-03T10:56:53;4.00;;;3.13;;
3231;SDS011;1628;48.884;9.210;2022-09-03T10:59:35;4.10;;;3.27;;
3231;SDS011;1628;48.884;9.210;2022-09-03T11:02:34;4.43;;;3.20;;
3231;SDS011;1628;48.884;9.210;2022-09-03T11:05:13;5.33;;;3.33;;
3231;SDS011;1628;48.884;9.210;2022-09-03T11:07:44;3.40;;;3.27;;
3231;SDS011;1628;48.884;9.210;2022-09-03T11:10:15;3.30;;;2.80;;
3231;SDS011;1628;48.884;9.210;2022-09-03T11:12:47;3.37;;;3.07;;
3231;SDS011;1628;48.884;9.210;2022-09-03T11:15:22;3.50;;;3.30;;
3231;SDS011;1628;48.884;9.210;2022-09-03T11:17:53;2.60;;;2.50;;
3231;SDS011;1628;48.884;9.210;2022-09-03T11:20:26;3.30;;;3.00;;
3231;SDS011;1628;48.884;9.210;2022-09-03T11:22:53;4.70;;;4.23;;
3231;SDS011;1628;48.884;9.210;2022-09-03T11:25:24;4.53;;;3.67;;
3231;SDS011;1628;48.884;9.210;2022-09-03T11:27:58;3.63;;;3.33;;
3231;SDS011;1628;48.884;9.210;2022-09-03T11:30:38;3.67;;;3.43;;
3231;SDS011;1628;48.884;9.210;2022-09-03T11:33:16;3.50;;;3.20;;
3231;SDS011;1628;48.884;9.210;2022-09-03T11:35:48;5.73;;;3.40;;
3231;SDS011;1628;48.884;9.210;2022-09-03T11:38:22;3.60;;;3.30;;
3231;SDS011;1628;48.884;9.210;2022-09-03T11:40:57;3.70;;;3.40;;
3231;SDS011;1628;48.884;9.210;2022-09-03T11:43:30;4.60;;;4.13;;
3231;SDS011;1628;48.884;9.210;2022-09-03T11:46:03;4.00;;;3.70;;
3231;SDS011;1628;48.884;9.210;2022-09-03T11:48:36;3.97;;;3.53;;
3231;SDS011;1628;48.884;9.210;2022-09-03T11:51:20;5.20;;;3.80;;
3231;SDS011;1628;48.884;9.210;2022-09-03T11:53:56;4.07;;;3.70;;
3231;SDS011;1628;48.884;9.210;2022-09-03T11:56:24;3.87;;;3.67;;
3231;SDS011;1628;48.884;9.210;2022-09-03T12:01:47;4.10;;;3.90;;
3231;SDS011;1628;48.884;9.210;2022-09-03T12:04:18;3.77;;;3.57;;
3231;SDS011;1628;48.884;9.210;2022-09-03T12:09:55;4.37;;;4.00;;
3231;SDS011;1628;48.884;9.210;2022-09-03T12:12:57;6.87;;;4.50;;
3231;SDS011;1628;48.884;9.210;2022-09-03T12:15:36;5.27;;;4.03;;
3231;SDS011;1628;48.884;9.210;2022-09-03T12:18:17;4.50;;;4.10;;
3231;SDS011;1628;48.884;9.210;2022-09-03T12:20:58;3.93;;;3.63;;
3231;SDS011;1628;48.884;9.210;2022-09-03T12:23:27;4.37;;;4.07;;
3231;SDS011;1628;48.884;9.210;2022-09-03T12:25:56;3.90;;;3.70;;
3231;SDS011;1628;48.884;9.210;2022-09-03T12:28:25;3.67;;;3.43;;
3231;SDS011;1628;48.884;9.210;2022-09-03T12:31:04;3.70;;;3.50;;
3231;SDS011;1628;48.884;9.210;2022-09-03T12:33:40;4.73;;;4.30;;
3231;SDS011;1628;48.884;9.210;2022-09-03T12:36:08;6.07;;;3.93;;
3231;SDS011;1628;48.884;9.210;2022-09-03T12:38:34;4.37;;;4.07;;
3231;SDS011;1628;48.884;9.210;2022-09-03T12:41:01;4.77;;;4.47;;
3231;SDS011;1628;48.884;9.210;2022-09-03T12:43:28;4.60;;;4.20;;
3231;SDS011;1628;48.884;9.210;2022-09-03T12:45:55;4.80;;;4.40;;
3231;SDS011;1628;48.884;9.210;2022-09-03T12:48:22;4.40;;;4.20;;
3231;SDS011;1628;48.884;9.210;2022-09-03T12:51:00;4.70;;;4.30;;
3231;SDS011;1628;48.884;9.210;2022-09-03T12:53:29;4.87;;;4.47;;
3231;SDS011;1628;48.884;9.210;2022-09-03T12:55:58;4.60;;;4.20;;
3231;SDS011;1628;48.884;9.210;2022-09-03T12:58:27;5.17;;;4.70;;
3231;SDS011;1628;48.884;9.210;2022-09-03T13:00:58;4.97;;;4.43;;
3231;SDS011;1628;48.884;9.210;2022-09-03T13:03:37;3.70;;;3.47;;
3231;SDS011;1628;48.884;9.210;2022-09-03T13:06:12;3.43;;;3.23;;
3231;SDS011;1628;48.884;9.210;2022-09-03T13:08:43;4.00;;;2.70;;
3231;SDS011;1628;48.884;9.210;2022-09-03T13:11:14;4.83;;;2.93;;
3231;SDS011;1628;48.884;9.210;2022-09-03T13:13:49;3.30;;;2.90;;
3231;SDS011;1628;48.884;9.210;2022-09-03T13:16:29;3.07;;;2.87;;
3231;SDS011;1628;48.884;9.210;2022-09-03T13:19:21;5.17;;;3.20;;
3231;SDS011;1628;48.884;9.210;2022-09-03T13:21:58;3.30;;;3.00;;
3231;SDS011;1628;48.884;9.210;2022-09-03T13:24:39;3.80;;;3.47;;
3231;SDS011;1628;48.884;9.210;2022-09-03T13:27:17;6.27;;;4.40;;
3231;SDS011;1628;48.884;9.210;2022-09-03T13:29:56;4.20;;;4.00;;
3231;SDS011;1628;48.884;9.210;2022-09-03T13:32:31;4.43;;;3.67;;
3231;SDS011;1628;48.884;9.210;2022-09-03T13:35:07;5.90;;;3.87;;
3231;SDS011;1628;48.884;9.210;2022-09-03T13:37:41;4.33;;;4.03;;
3231;SDS011;1628;48.884;9.210;2022-09-03T13:40:12;4.70;;;3.50;;
3231;SDS011;1628;48.884;9.210;2022-09-03T13:42:43;4.17;;;3.60;;
3231;SDS011;1628;48.884;9.210;2022-09-03T13:45:15;3.30;;;3.00;;
3231;SDS011;1628;48.884;9.210;2022-09-03T13:47:51;4.27;;;3.90;;
3231;SDS011;1628;48.884;9.210;2022-09-03T13:50:43;4.07;;;3.70;;
3231;SDS011;1628;48.884;9.210;2022-09-03T13:53:16;10.00;;;4.13;;
3231;SDS011;1628;48.884;9.210;2022-09-03T13:55:48;3.67;;;3.27;;
3231;SDS011;1628;48.884;9.210;2022-09-03T13:58:20;2.30;;;2.20;;
3231;SDS011;1628;48.884;9.210;2022-09-03T14:00:53;3.07;;;2.57;;
3231;SDS011;1628;48.884;9.210;2022-09-03T14:03:37;3.17;;;2.90;;
3231;SDS011;1628;48.884;9.210;2022-09-03T14:06:10;2.70;;;2.50;;
3231;SDS011;1628;48.884;9.210;2022-09-03T14:08:52;3.97;;;3.10;;
3231;SDS011;1628;48.884;9.210;2022-09-03T14:11:28;4.67;;;3.00;;
3231;SDS011;1628;48.884;9.210;2022-09-03T14:14:02;3.60;;;3.40;;
3231;SDS011;1628;48.884;9.210;2022-09-03T14:16:41;3.20;;;2.87;;
3231;SDS011;1628;48.884;9.210;2022-09-03T14:19:14;5.90;;;2.80;;
3231;SDS011;1628;48.884;9.210;2022-09-03T14:21:46;2.90;;;2.60;;
3231;SDS011;1628;48.884;9.210;2022-09-03T14:24:21;6.50;;;3.30;;
3231;SDS011;1628;48.884;9.210;2022-09-03T14:26:53;3.47;;;2.50;;
3231;SDS011;1628;48.884;9.210;2022-09-03T14:29:22;2.87;;;2.23;;
3231;SDS011;1628;48.884;9.210;2022-09-03T14:31:56;2.80;;;2.40;;
3231;SDS011;1628;48.884;9.210;2022-09-03T14:34:40;3.90;;;2.83;;
3231;SDS011;1628;48.884;9.210;2022-09-03T14:37:18;3.30;;;3.10;;
3231;SDS011;1628;48.884;9.210;2022-09-03T14:39:58;2.83;;;2.60;;
3231;SDS011;1628;48.884;9.210;2022-09-03T14:42:39;2.50;;;2.40;;
3231;SDS011;1628;48.884;9.210;2022-09-03T14:45:24;2.50;;;2.40;;
3231;SDS011;1628;48.884;9.210;2022-09-03T14:48:19;3.63;;;2.70;;
3231;SDS011;1628;48.884;9.210;2022-09-03T14:50:59;5.53;;;2.77;;
3231;SDS011;1628;48.884;9.210;2022-09-03T14:54:00;3.53;;;3.13;;
3231;SDS011;1628;48.884;9.210;2022-09-03T14:56:47;5.60;;;2.67;;
3231;SDS011;1628;48.884;9.210;2022-09-03T14:59:25;5.30;;;3.00;;
3231;SDS011;1628;48.884;9.210;2022-09-03T15:02:07;3.70;;;2.60;;
3231;SDS011;1628;48.884;9.210;2022-09-03T15:04:54;3.90;;;3.27;;
3231;SDS011;1628;48.884;9.210;2022-09-03T15:07:34;3.17;;;2.87;;
3231;SDS011;1628;48.884;9.210;2022-09-03T15:10:09;4.67;;;3.40;;
3231;SDS011;1628;48.884;9.210;2022-09-03T15:12:44;3.43;;;3.13;;
3231;SDS011;1628;48.884;9.210;2022-09-03T15:15:16;3.23;;;3.03;;
3231;SDS011;1628;48.884;9.210;2022-09-03T15:17:47;3.53;;;3.20;;
3231;SDS011;1628;48.884;9.210;2022-09-03T15:20:24;3.70;;;3.40;;
3231;SDS011;1628;48.884;9.210;2022-09-03T15:23:17;4.30;;;3.70;;
3231;SDS011;1628;48.884;9.210;2022-09-03T15:26:04;4.40;;;3.40;;
3231;SDS011;1628;48.884;9.210;2022-09-03T15:28:51;3.43;;;3.13;;
3231;SDS011;1628;48.884;9.210;2022-09-03T15:31:26;4.00;;;3.70;;
3231;SDS011;1628;48.884;9.210;2022-09-03T15:34:07;3.10;;;2.80;;
3231;SDS011;1628;48.884;9.210;2022-09-03T15:36:41;2.60;;;2.40;;
3231;SDS011;1628;48.884;9.210;2022-09-03T15:39:14;2.80;;;2.60;;
3231;SDS011;1628;48.884;9.210;2022-09-03T15:41:45;6.57;;;4.83;;
3231;SDS011;1628;48.884;9.210;2022-09-03T15:44:17;4.47;;;4.07;;
3231;SDS011;1628;48.884;9.210;2022-09-03T15:46:49;3.80;;;3.43;;
3231;SDS011;1628;48.884;9.210;2022-09-03T15:49:26;3.47;;;3.17;;
3231;SDS011;1628;48.884;9.210;2022-09-03T15:52:05;3.47;;;3.13;;
3231;SDS011;1628;48.884;9.210;2022-09-03T15:54:42;3.37;;;3.17;;
3231;SDS011;1628;48.884;9.210;2022-09-03T15:57:16;3.33;;;2.90;;
3231;SDS011;1628;48.884;9.210;2022-09-03T15:59:50;4.10;;;3.50;;
3231;SDS011;1628;48.884;9.210;2022-09-03T16:02:27;2.90;;;2.70;;
3231;SDS011;1628;48.884;9.210;2022-09-03T16:05:01;3.33;;;3.03;;
3231;SDS011;1628;48.884;9.210;2022-09-03T16:07:40;2.90;;;2.70;;
3231;SDS011;1628;48.884;9.210;2022-09-03T16:10:31;3.43;;;3.20;;
3231;SDS011;1628;48.884;9.210;2022-09-03T16:13:07;4.60;;;4.20;;
3231;SDS011;1628;48.884;9.210;2022-09-03T16:15:47;7.67;;;3.20;;
3231;SDS011;1628;48.884;9.210;2022-09-03T16:18:24;3.13;;;2.93;;
3231;SDS011;1628;48.884;9.210;2022-09-03T16:20:56;3.67;;;3.37;;
3231;SDS011;1628;48.884;9.210;2022-09-03T16:23:27;3.93;;;3.70;;
3231;SDS011;1628;48.884;9.210;2022-09-03T16:25:59;4.23;;;3.93;;
3231;SDS011;1628;48.884;9.210;2022-09-03T16:28:31;3.60;;;3.30;;
3231;SDS011;1628;48.884;9.210;2022-09-03T16:31:10;3.93;;;3.60;;
3231;SDS011;1628;48.884;9.210;2022-09-03T16:33:55;3.70;;;3.47;;
3231;SDS011;1628;48.884;9.210;2022-09-03T16:36:33;4.30;;;3.97;;
3231;SDS011;1628;48.884;9.210;2022-09-03T16:39:12;4.13;;;3.70;;
3231;SDS011;1628;48.884;9.210;2022-09-03T16:41:49;3.50;;;3.30;;
3231;SDS011;1628;48.884;9.210;2022-09-03T16:44:26;5.10;;;3.40;;
3231;SDS011;1628;48.884;9.210;2022-09-03T16:47:06;13.43;;;4.40;;
3231;SDS011;1628;48.884;9.210;2022-09-03T16:49:45;3.70;;;3.40;;
3231;SDS011;1628;48.884;9.210;2022-09-03T16:52:22;3.20;;;3.00;;
3231;SDS011;1628;48.884;9.210;2022-09-03T16:54:59;3.33;;;3.03;;
3231;SDS011;1628;48.884;9.210;2022-09-03T16:57:41;3.53;;;3.23;;
3231;SDS011;1628;48.884;9.210;2022-09-03T17:00:21;3.43;;;3.23;;
3231;SDS011;1628;48.884;9.210;2022-09-03T17:03:00;2.80;;;2.60;;
3231;SDS011;1628;48.884;9.210;2022-09-03T17:05:50;3.30;;;3.00;;
3231;SDS011;1628;48.884;9.210;2022-09-03T17:08:47;3.87;;;3.57;;
3231;SDS011;1628;48.884;9.210;2022-09-03T17:14:11;3.90;;;3.57;;
3231;SDS011;1628;48.884;9.210;2022-09-03T17:16:50;3.73;;;3.43;;
3231;SDS011;1628;48.884;9.210;2022-09-03T17:19:29;7.10;;;3.97;;
3231;SDS011;1628;48.884;9.210;2022-09-03T17:22:07;3.37;;;3.07;;
3231;SDS011;1628;48.884;9.210;2022-09-03T17:24:42;5.13;;;3.70;;
3231;SDS011;1628;48.884;9.210;2022-09-03T17:27:33;4.67;;;3.70;;
3231;SDS011;1628;48.884;9.210;2022-09-03T17:30:14;4.10;;;3.80;;
3231;SDS011;1628;48.884;9.210;2022-09-03T17:32:51;3.03;;;2.80;;
3231;SDS011;1628;48.884;9.210;2022-09-03T17:36:00;3.50;;;3.20;;
3231;SDS011;1628;48.884;9.210;2022-09-03T17:38:40;3.47;;;3.17;;
3231;SDS011;1628;48.884;9.210;2022-09-03T17:41:25;3.33;;;3.17;;
3231;SDS011;1628;48.884;9.210;2022-09-03T17:44:02;3.10;;;2.90;;
3231;SDS011;1628;48.884;9.210;2022-09-03T17:46:36;6.30;;;3.90;;
3231;SDS011;1628;48.884;9.210;2022-09-03T17:49:12;3.40;;;3.20;;
3231;SDS011;1628;48.884;9.210;2022-09-03T17:51:44;4.73;;;3.50;;
3231;SDS011;1628;48.884;9.210;2022-09-03T17:54:16;4.07;;;3.70;;
3231;SDS011;1628;48.884;9.210;2022-09-03T17:56:53;4.00;;;3.70;;
3231;SDS011;1628;48.884;9.210;2022-09-03T17:59:31;3.53;;;3.23;;
3231;SDS011;1628;48.884;9.210;2022-09-03T18:02:07;3.90;;;3.50;;
3231;SDS011;1628;48.884;9.210;2022-09-03T18:04:47;2.90;;;2.67;;
3231;SDS011;1628;48.884;9.210;2022-09-03T18:07:22;3.97;;;3.57;;
3231;SDS011;1628;48.884;9.210;2022-09-03T18:09:55;3.83;;;3.53;;
3231;SDS011;1628;48.884;9.210;2022-09-03T18:12:31;4.07;;;3.67;;
3231;SDS011;1628;48.884;9.210;2022-09-03T18:15:04;3.80;;;3.50;;
3231;SDS011;1628;48.884;9.210;2022-09-03T18:17:38;3.17;;;2.97;;
3231;SDS011;1628;48.884;9.210;2022-09-03T18:20:11;3.73;;;3.17;;
3231;SDS011;1628;48.884;9.210;2022-09-03T18:22:59;4.73;;;3.50;;
3231;SDS011;1628;48.884;9.210;2022-09-03T18:25:46;3.93;;;3.63;;
3231;SDS011;1628;48.884;9.210;2022-09-03T18:28:36;3.37;;;3.17;;
3231;SDS011;1628;48.884;9.210;2022-09-03T18:31:24;4.43;;;4.03;;
3231;SDS011;1628;48.884;9.210;2022-09-03T18:34:09;3.60;;;3.40;;
3231;SDS011;1628;48.884;9.210;2022-09-03T18:36:55;4.30;;;4.00;;
3231;SDS011;1628;48.884;9.210;2022-09-03T18:39:42;4.20;;;3.67;;
3231;SDS011;1628;48.884;9.210;2022-09-03T18:42:30;6.80;;;4.00;;
3231;SDS011;1628;48.884;9.210;2022-09-03T18:45:26;4.03;;;3.63;;
3231;SDS011;1628;48.884;9.210;2022-09-03T18:48:19;4.10;;;3.77;;
3231;SDS011;1628;48.884;9.210;2022-09-03T18:51:11;3.90;;;3.60;;
3231;SDS011;1628;48.884;9.210;2022-09-03T18:54:08;4.17;;;3.87;;
3231;SDS011;1628;48.884;9.210;2022-09-03T18:57:04;4.40;;;4.00;;
3231;SDS011;1628;48.884;9.210;2022-09-03T19:00:05;4.20;;;3.90;;
3231;SDS011;1628;48.884;9.210;2022-09-03T19:02:55;4.00;;;3.60;;
3231;SDS011;1628;48.884;9.210;2022-09-03T19:05:52;7.47;;;3.83;;
3231;SDS011;1628;48.884;9.210;2022-09-03T19:08:46;3.80;;;3.60;;
3231;SDS011;1628;48.884;9.210;2022-09-03T19:11:40;3.63;;;3.33;;
3231;SDS011;1628;48.884;9.210;2022-09-03T19:14:33;3.90;;;3.60;;
3231;SDS011;1628;48.884;9.210;2022-09-03T19:17:25;3.70;;;3.20;;
3231;SDS011;1628;48.884;9.210;2022-09-03T19:20:17;3.47;;;3.27;;
3231;SDS011;1628;48.884;9.210;2022-09-03T19:23:09;3.07;;;2.87;;
3231;SDS011;1628;48.884;9.210;2022-09-03T19:25:53;3.07;;;2.87;;
3231;SDS011;1628;48.884;9.210;2022-09-03T19:28:44;3.53;;;2.50;;
3231;SDS011;1628;48.884;9.210;2022-09-03T19:31:38;4.90;;;2.83;;
3231;SDS011;1628;48.884;9.210;2022-09-03T19:34:32;3.47;;;3.27;;
3231;SDS011;1628;48.884;9.210;2022-09-03T19:37:27;4.50;;;3.70;;
3231;SDS011;1628;48.884;9.210;2022-09-03T19:40:23;3.13;;;2.93;;
3231;SDS011;1628;48.884;9.210;2022-09-03T19:43:20;5.47;;;3.57;;
3231;SDS011;1628;48.884;9.210;2022-09-03T19:46:11;4.03;;;3.37;;
3231;SDS011;1628;48.884;9.210;2022-09-03T19:49:06;3.53;;;3.20;;
3231;SDS011;1628;48.884;9.210;2022-09-03T19:52:00;3.50;;;3.27;;
3231;SDS011;1628;48.884;9.210;2022-09-03T19:54:51;3.73;;;3.47;;
3231;SDS011;1628;48.884;9.210;2022-09-03T19:57:38;4.27;;;3.97;;
3231;SDS011;1628;48.884;9.210;2022-09-03T20:00:24;3.77;;;3.47;;
3231;SDS011;1628;48.884;9.210;2022-09-03T20:03:09;3.80;;;3.50;;
3231;SDS011;1628;48.884;9.210;2022-09-03T20:05:57;4.90;;;3.23;;
3231;SDS011;1628;48.884;9.210;2022-09-03T20:08:42;4.23;;;3.93;;
3231;SDS011;1628;48.884;9.210;2022-09-03T20:11:27;6.30;;;5.17;;
3231;SDS011;1628;48.884;9.210;2022-09-03T20:13:55;4.27;;;3.90;;